createdAt,value
2019-02-15T00:02:32.784Z,23.20
2019-02-15T00:05:05.307Z,23.30
2019-02-15T00:07:38.714Z,23.30
2019-02-15T00:10:11.208Z,23.40
2019-02-15T00:12:43.514Z,23.40
2019-02-15T00:15:15.826Z,23.50
2019-02-15T00:17:50.039Z,23.50
2019-02-15T00:20:23.837Z,23.60
2019-02-15T00:22:56.657Z,23.60
2019-02-15T00:25:29.132Z,23.60
2019-02-15T00:28:01.434Z,23.70
2019-02-15T00:30:33.979Z,23.70
2019-02-15T00:33:06.342Z,23.80
2019-02-15T00:35:38.684Z,23.80
2019-02-15T00:38:11.084Z,23.90
2019-02-15T00:40:43.299Z,23.90
2019-02-15T00:43:22.150Z,24.00
2019-02-15T00:45:50.854Z,24.10
2019-02-15T00:48:24.962Z,24.10
2019-02-15T00:50:59.010Z,24.20
2019-02-15T00:53:32.529Z,24.40
2019-02-15T00:56:05.975Z,24.40
2019-02-15T00:58:39.777Z,24.50
2019-02-15T01:01:13.835Z,24.70
2019-02-15T01:03:47.583Z,24.80
2019-02-15T01:06:21.128Z,24.80
2019-02-15T01:08:54.633Z,24.90
2019-02-15T01:11:27.980Z,24.90
2019-02-15T01:14:00.387Z,25.00
2019-02-15T01:16:32.617Z,25.00
2019-02-15T01:19:05.139Z,25.20
2019-02-15T01:21:37.423Z,25.40
2019-02-15T01:24:09.740Z,25.40
2019-02-15T01:26:43.293Z,25.40
2019-02-15T01:29:16.806Z,25.30
2019-02-15T01:31:51.271Z,25.40
2019-02-15T01:34:25.179Z,25.50
2019-02-15T01:37:00.007Z,25.70
2019-02-15T01:39:33.669Z,25.90
2019-02-15T01:42:07.130Z,25.90
2019-02-15T01:44:40.677Z,26.10
2019-02-15T01:47:14.266Z,26.20
2019-02-15T01:49:46.480Z,26.20
2019-02-15T01:52:19.215Z,26.20
2019-02-15T01:54:51.497Z,26.10
2019-02-15T01:57:24.124Z,26.50
2019-02-15T01:59:56.316Z,26.50
2019-02-15T02:02:29.982Z,26.70
2019-02-15T02:05:02.618Z,26.90
2019-02-15T02:07:35.033Z,27.10
2019-02-15T02:10:09.569Z,27.10
2019-02-15T02:12:41.867Z,27.40
2019-02-15T02:15:14.727Z,27.40
2019-02-15T02:17:47.070Z,27.40
2019-02-15T02:20:19.705Z,27.30
2019-02-15T02:22:51.997Z,27.40
2019-02-15T02:25:25.651Z,27.50
2019-02-15T02:27:58.159Z,27.60
2019-02-15T02:30:30.744Z,27.50
2019-02-15T02:33:03.412Z,27.70
2019-02-15T02:35:35.736Z,28.20
2019-02-15T02:38:09.258Z,28.30
2019-02-15T02:40:41.515Z,28.50
2019-02-15T02:43:13.757Z,28.70
2019-02-15T02:45:46.185Z,28.50
2019-02-15T02:48:18.800Z,28.60
2019-02-15T02:50:51.614Z,28.70
2019-02-15T02:53:24.399Z,28.50
2019-02-15T02:55:56.950Z,28.60
2019-02-15T02:58:29.453Z,29.00
2019-02-15T03:01:02.130Z,29.40
2019-02-15T03:03:34.749Z,29.60
2019-02-15T03:06:07.129Z,29.30
2019-02-15T03:08:39.408Z,29.40
2019-02-15T03:11:12.112Z,29.80
2019-02-15T03:13:44.295Z,29.60
2019-02-15T03:16:16.660Z,29.80
2019-02-15T03:18:48.987Z,30.10
2019-02-15T03:21:21.557Z,30.10
2019-02-15T03:23:53.744Z,30.20
2019-02-15T03:26:26.211Z,30.20
2019-02-15T03:28:58.843Z,30.50
2019-02-15T03:31:31.398Z,30.40
2019-02-15T03:34:03.698Z,30.30
2019-02-15T03:36:37.598Z,30.60
2019-02-15T03:39:12.127Z,30.60
2019-02-15T03:41:44.843Z,30.70
2019-02-15T03:44:22.149Z,31.10
2019-02-15T03:46:51.182Z,31.20
2019-02-15T03:49:23.759Z,31.00
2019-02-15T03:51:56.282Z,30.40
2019-02-15T03:54:28.929Z,30.70
2019-02-15T03:57:01.487Z,31.00
2019-02-15T03:59:34.131Z,31.10
2019-02-15T04:02:06.712Z,30.90
2019-02-15T04:04:38.956Z,31.10
2019-02-15T04:07:11.273Z,31.70
2019-02-15T04:09:43.463Z,32.00
2019-02-15T04:12:15.869Z,32.20
2019-02-15T05:32:08.925Z,34.40
2019-02-15T05:34:41.416Z,34.50
2019-02-15T05:37:13.836Z,34.70
2019-02-15T05:39:46.378Z,34.60
2019-02-15T05:42:18.997Z,35.20
2019-02-15T05:44:51.393Z,35.50
2019-02-15T05:47:23.665Z,34.70
2019-02-15T05:49:56.894Z,34.40
2019-02-15T05:52:29.544Z,34.50
2019-02-15T05:55:01.979Z,35.30
2019-02-15T05:57:34.374Z,34.80
2019-02-15T06:00:09.322Z,34.90
2019-02-15T06:02:41.731Z,34.80
2019-02-15T06:05:14.170Z,34.70
2019-02-15T06:07:46.454Z,34.90
2019-02-15T06:10:18.744Z,35.60
2019-02-15T06:12:51.457Z,35.60
2019-02-15T06:15:23.860Z,36.00
2019-02-15T06:17:56.182Z,35.40
2019-02-15T06:20:28.376Z,35.10
2019-02-15T06:23:00.808Z,35.20
2019-02-15T06:25:33.311Z,35.00
2019-02-15T06:28:05.456Z,35.00
2019-02-15T06:30:37.778Z,35.10
2019-02-15T06:33:10.087Z,35.20
2019-02-15T06:35:43.062Z,35.80
2019-02-15T06:38:15.275Z,36.10
2019-02-15T06:40:48.064Z,36.00
2019-02-15T06:43:20.647Z,35.70
2019-02-15T06:45:53.238Z,35.70
2019-02-15T06:48:25.531Z,36.40
2019-02-15T06:50:57.943Z,36.30
2019-02-15T06:53:30.238Z,36.10
2019-02-15T06:56:02.863Z,35.40
2019-02-15T06:58:35.200Z,35.00
2019-02-15T07:01:08.803Z,35.40
2019-02-15T07:03:42.470Z,35.90
2019-02-15T07:06:15.903Z,36.80
2019-02-15T07:08:48.398Z,36.90
2019-02-15T07:11:20.950Z,37.00
2019-02-15T07:13:53.434Z,36.90
2019-02-15T07:16:26.092Z,36.30
2019-02-15T07:18:58.576Z,36.50
2019-02-15T07:21:31.232Z,36.00
2019-02-15T07:24:03.809Z,35.70
2019-02-15T07:26:36.334Z,36.10
2019-02-15T07:29:08.578Z,36.10
2019-02-15T07:31:41.108Z,36.50
2019-02-15T07:34:13.485Z,36.30
2019-02-15T07:36:47.732Z,36.30
2019-02-15T07:39:20.114Z,36.30
2019-02-15T07:41:52.998Z,36.10
2019-02-15T07:44:25.733Z,36.00
2019-02-15T07:46:59.646Z,36.10
2019-02-15T07:49:32.047Z,35.70
2019-02-15T07:52:04.415Z,35.50
2019-02-15T07:54:37.187Z,36.10
2019-02-15T07:57:09.461Z,36.40
2019-02-15T07:59:41.719Z,35.70
2019-02-15T08:02:14.058Z,35.30
2019-02-15T08:04:46.591Z,35.20
2019-02-15T08:07:18.976Z,34.80
2019-02-15T08:09:51.704Z,34.30
2019-02-15T08:12:24.384Z,34.10
2019-02-15T08:14:56.895Z,34.50
2019-02-15T08:17:29.449Z,34.40
2019-02-15T08:20:02.054Z,34.30
2019-02-15T08:22:34.589Z,34.20
2019-02-15T08:25:07.830Z,34.20
2019-02-15T08:27:40.272Z,34.40
2019-02-15T08:30:13.718Z,34.60
2019-02-15T08:32:46.335Z,34.90
2019-02-15T08:35:19.075Z,34.50
2019-02-15T08:37:51.734Z,34.70
2019-02-15T08:40:24.480Z,34.80
2019-02-15T08:42:56.886Z,35.10
2019-02-15T08:45:29.410Z,35.30
2019-02-15T08:48:01.660Z,35.30
2019-02-15T08:50:34.351Z,35.00
2019-02-15T08:53:06.783Z,35.20
2019-02-15T08:55:39.610Z,35.40
2019-02-15T08:58:11.854Z,35.20
2019-02-15T09:00:44.368Z,34.80
2019-02-15T09:03:16.760Z,34.50
2019-02-15T09:05:49.234Z,34.80
2019-02-15T09:08:22.209Z,35.10
2019-02-15T09:10:54.547Z,35.20
2019-02-15T09:13:27.013Z,35.30
2019-02-15T09:15:59.319Z,35.20
2019-02-15T09:18:31.524Z,35.20
2019-02-15T09:21:03.862Z,35.30
2019-02-15T09:23:37.255Z,35.10
2019-02-15T09:26:18.062Z,35.00
2019-02-15T09:28:51.967Z,35.00
2019-02-15T09:31:28.104Z,35.10
2019-02-15T09:34:03.770Z,35.20
2019-02-15T09:36:41.466Z,34.80
2019-02-15T09:39:17.743Z,34.90
2019-02-15T09:41:53.411Z,34.80
2019-02-15T09:44:37.340Z,34.60
2019-02-15T09:49:55.620Z,34.70
2019-02-15T09:52:33.576Z,34.40
2019-02-15T09:55:19.044Z,34.30
2019-02-15T09:57:55.774Z,34.30
2019-02-15T10:00:34.568Z,34.30
2019-02-15T10:03:12.048Z,34.30
2019-02-15T10:05:49.774Z,34.20
2019-02-15T10:08:27.331Z,34.20
2019-02-15T10:11:02.481Z,34.20
2019-02-15T10:13:44.011Z,34.10
2019-02-15T10:16:28.121Z,34.10
2019-02-15T10:19:00.252Z,34.00
2019-02-15T10:21:39.598Z,33.80
2019-02-15T10:24:17.767Z,33.70
2019-02-15T10:26:52.638Z,33.60
2019-02-15T10:29:32.793Z,33.50
2019-02-15T10:32:07.505Z,33.40
2019-02-15T10:34:44.094Z,33.30
2019-02-15T10:37:26.977Z,33.20
2019-02-15T10:40:00.390Z,33.10
2019-02-15T10:42:34.978Z,32.90
2019-02-15T10:45:12.348Z,32.80
2019-02-15T10:47:48.718Z,32.70
2019-02-15T10:50:25.429Z,32.60
2019-02-15T10:53:01.333Z,32.50
2019-02-15T10:55:38.836Z,32.50
2019-02-15T10:58:15.552Z,32.40
2019-02-15T11:00:51.332Z,32.30
2019-02-15T11:03:26.596Z,32.20
2019-02-15T11:06:00.419Z,32.10
2019-02-15T11:08:34.728Z,32.10
2019-02-15T11:11:10.017Z,32.10
2019-02-15T11:13:51.541Z,32.00
2019-02-15T11:16:33.094Z,31.80
2019-02-15T11:19:07.269Z,31.80
2019-02-15T11:21:48.225Z,31.80
2019-02-15T11:24:25.843Z,31.60
2019-02-15T11:27:01.824Z,31.60
2019-02-15T11:29:34.865Z,31.50
2019-02-15T11:32:10.586Z,31.40
2019-02-15T11:34:43.737Z,31.20
2019-02-15T11:37:17.779Z,31.20
2019-02-15T11:39:50.428Z,31.10
2019-02-15T11:42:23.386Z,31.00
2019-02-15T11:44:56.346Z,31.00
2019-02-15T11:47:33.701Z,30.90
2019-02-15T11:50:08.558Z,30.80
2019-02-15T11:52:42.511Z,30.60
2019-02-15T11:55:15.454Z,30.40
2019-02-15T11:57:48.267Z,30.40
2019-02-15T12:00:25.686Z,30.30
2019-02-15T12:02:59.666Z,30.30
2019-02-15T12:05:33.800Z,30.40
2019-02-15T12:08:07.736Z,30.30
2019-02-15T12:10:41.116Z,30.30
2019-02-15T12:13:13.735Z,30.30
2019-02-15T12:15:46.240Z,30.30
2019-02-15T12:18:18.908Z,30.20
2019-02-15T12:20:51.717Z,30.20
2019-02-15T12:23:23.906Z,30.20
2019-02-15T12:25:56.406Z,30.20
2019-02-15T12:28:30.550Z,30.10
2019-02-15T12:31:02.535Z,30.10
2019-02-15T12:33:34.884Z,30.10
2019-02-15T12:36:07.240Z,30.00
2019-02-15T12:38:39.474Z,30.00
2019-02-15T12:41:11.677Z,29.90
2019-02-15T12:43:44.024Z,29.90
2019-02-15T12:46:16.526Z,29.80
2019-02-15T12:49:09.258Z,29.80
2019-02-15T12:51:41.631Z,29.70
2019-02-15T12:54:14.039Z,29.70
2019-02-15T12:56:46.381Z,29.60
2019-02-15T12:59:19.044Z,29.60
2019-02-15T13:01:51.411Z,29.50
2019-02-15T13:04:24.095Z,29.40
2019-02-15T13:06:56.246Z,29.30
2019-02-15T13:09:29.904Z,29.30
2019-02-15T13:12:02.211Z,29.20
2019-02-15T13:14:34.456Z,29.10
2019-02-15T13:17:06.884Z,29.10
2019-02-15T13:19:39.471Z,29.20
2019-02-15T13:22:11.957Z,29.20
2019-02-15T13:24:44.444Z,29.20
2019-02-15T13:27:16.769Z,29.10
2019-02-15T13:29:49.484Z,29.00
2019-02-15T13:32:21.708Z,29.00
2019-02-15T13:34:54.327Z,29.00
2019-02-15T13:37:39.133Z,28.80
2019-02-15T13:40:19.629Z,28.90
2019-02-15T13:42:52.129Z,28.80
2019-02-15T13:45:24.462Z,28.70
2019-02-15T13:47:56.682Z,28.40
2019-02-15T13:50:29.098Z,28.60
2019-02-15T13:53:01.208Z,28.70
2019-02-15T13:55:33.680Z,28.70
2019-02-15T13:58:06.134Z,28.60
2019-02-15T14:00:38.517Z,28.60
2019-02-15T14:03:11.298Z,28.70
2019-02-15T14:05:43.619Z,28.60
2019-02-15T14:08:16.043Z,28.60
2019-02-15T14:10:48.448Z,28.70
2019-02-15T14:13:20.691Z,28.50
2019-02-15T14:15:52.904Z,28.50
2019-02-15T14:18:25.080Z,28.30
2019-02-15T14:20:58.305Z,28.30
2019-02-15T14:23:30.870Z,28.30
2019-02-15T14:26:03.592Z,28.30
2019-02-15T14:28:49.348Z,28.30
2019-02-15T14:31:22.039Z,28.10
2019-02-15T14:33:54.575Z,27.80
2019-02-15T14:36:43.708Z,27.70
2019-02-15T14:39:16.258Z,27.70
2019-02-15T14:41:49.941Z,27.50
2019-02-15T14:44:22.175Z,27.20
2019-02-15T14:46:54.335Z,27.00
2019-02-15T14:49:26.547Z,27.10
2019-02-15T14:51:59.055Z,27.30
2019-02-15T14:54:43.904Z,27.30
2019-02-15T14:57:16.398Z,27.60
2019-02-15T14:59:48.819Z,27.50
2019-02-15T15:02:21.233Z,27.20
2019-02-15T15:04:53.577Z,27.30
2019-02-15T15:07:26.024Z,27.40
2019-02-15T15:09:58.630Z,27.40
2019-02-15T15:12:31.700Z,27.40
2019-02-15T15:15:04.466Z,27.40
2019-02-15T15:17:36.670Z,27.20
2019-02-15T15:20:11.739Z,27.10
2019-02-15T15:22:44.600Z,27.00
2019-02-15T15:25:18.158Z,27.10
2019-02-15T15:27:50.387Z,27.10
2019-02-15T15:30:22.864Z,27.00
2019-02-15T15:32:55.286Z,27.00
2019-02-15T15:35:40.182Z,26.90
2019-02-15T15:38:12.976Z,26.90
2019-02-15T15:40:46.179Z,26.90
2019-02-15T15:43:19.441Z,27.10
2019-02-15T15:45:52.251Z,27.10
2019-02-15T15:48:24.834Z,27.10
2019-02-15T15:50:57.126Z,26.90
2019-02-15T15:53:30.529Z,26.90
2019-02-15T15:56:02.748Z,26.90
2019-02-15T15:58:35.105Z,26.80
2019-02-15T16:01:19.815Z,26.70
2019-02-15T16:03:52.260Z,26.60
2019-02-15T16:06:24.853Z,26.60
2019-02-15T16:08:57.124Z,26.70
2019-02-15T16:11:29.982Z,26.80
2019-02-15T16:14:02.304Z,26.70
2019-02-15T16:16:37.024Z,26.30
2019-02-15T16:19:09.024Z,26.10
2019-02-15T16:21:41.484Z,25.90
2019-02-15T16:24:14.198Z,26.00
2019-02-15T16:26:46.419Z,26.30
2019-02-15T16:29:18.892Z,26.30
2019-02-15T16:31:51.251Z,26.50
2019-02-15T16:34:23.663Z,26.50
2019-02-15T16:36:56.006Z,26.40
2019-02-15T16:39:28.558Z,26.30
2019-02-15T16:42:01.652Z,26.30
2019-02-15T16:44:34.777Z,26.30
2019-02-15T16:47:07.129Z,26.30
2019-02-15T16:49:39.550Z,26.30
2019-02-15T16:52:12.399Z,26.30
2019-02-15T16:54:44.849Z,26.20
2019-02-15T16:57:17.395Z,26.30
2019-02-15T16:59:49.601Z,26.20
2019-02-15T17:02:22.352Z,26.10
2019-02-15T17:04:55.742Z,25.70
2019-02-15T17:07:28.340Z,25.70
2019-02-15T17:10:01.227Z,25.80
2019-02-15T17:12:34.188Z,25.90
2019-02-15T17:15:08.892Z,26.10
2019-02-15T17:17:41.052Z,26.00
2019-02-15T17:20:14.661Z,26.00
2019-02-15T17:22:47.131Z,26.00
2019-02-15T17:25:19.499Z,25.70
2019-02-15T17:27:52.448Z,25.70
2019-02-15T17:30:25.227Z,25.90
2019-02-15T17:32:57.527Z,26.00
2019-02-15T17:35:29.940Z,26.00
2019-02-15T17:38:02.272Z,26.00
2019-02-15T17:40:34.682Z,26.00
2019-02-15T17:43:07.315Z,25.90
2019-02-15T17:45:40.257Z,25.70
2019-02-15T17:48:12.803Z,25.50
2019-02-15T17:50:45.141Z,25.50
2019-02-15T17:53:17.727Z,25.50
2019-02-15T17:55:51.307Z,25.50
2019-02-15T17:58:23.835Z,25.40
2019-02-15T18:00:56.197Z,25.40
2019-02-15T18:03:28.933Z,25.40
2019-02-15T18:06:01.357Z,25.50
2019-02-15T18:08:33.963Z,25.50
2019-02-15T18:11:06.648Z,25.40
2019-02-15T18:13:38.910Z,25.40
2019-02-15T18:16:11.159Z,25.40
2019-02-15T18:18:43.533Z,25.40
2019-02-15T18:21:16.780Z,25.20
2019-02-15T18:23:49.249Z,25.20
2019-02-15T18:26:21.622Z,25.10
2019-02-15T18:28:54.007Z,25.00
2019-02-15T18:31:26.427Z,25.20
2019-02-15T18:33:59.203Z,25.30
2019-02-15T18:36:31.573Z,25.30
2019-02-15T18:39:04.915Z,25.30
2019-02-15T18:41:38.160Z,25.30
2019-02-15T18:44:10.617Z,25.20
2019-02-15T18:46:42.853Z,25.10
2019-02-15T18:49:19.388Z,24.90
2019-02-15T18:51:49.585Z,24.90
2019-02-15T18:54:21.813Z,24.80
2019-02-15T18:56:54.064Z,24.90
2019-02-15T18:59:27.077Z,24.70
2019-02-15T19:01:59.474Z,24.40
2019-02-15T19:04:32.254Z,24.50
2019-02-15T19:07:04.710Z,24.80
2019-02-15T19:09:37.681Z,24.50
2019-02-15T19:12:10.117Z,24.60
2019-02-15T19:14:42.572Z,24.60
2019-02-15T19:17:15.222Z,24.80
2019-02-15T19:19:47.657Z,24.80
2019-02-15T19:22:19.939Z,24.70
2019-02-15T19:24:52.240Z,24.70
2019-02-15T19:27:24.819Z,24.70
2019-02-15T19:29:57.223Z,24.70
2019-02-15T19:32:29.532Z,24.80
2019-02-15T19:35:02.165Z,24.80
2019-02-15T19:37:34.633Z,24.80
2019-02-15T19:40:09.164Z,24.70
2019-02-15T19:42:42.550Z,24.70
2019-02-15T19:45:15.275Z,24.70
2019-02-15T19:47:47.969Z,24.70
2019-02-15T19:50:20.536Z,24.70
2019-02-15T19:52:52.835Z,24.60
2019-02-15T19:55:25.530Z,24.60
2019-02-15T19:57:58.079Z,24.50
2019-02-15T20:00:30.303Z,24.50
2019-02-15T20:03:02.688Z,24.40
2019-02-15T20:05:35.104Z,24.40
2019-02-15T20:08:07.583Z,24.40
2019-02-15T20:10:40.432Z,24.40
2019-02-15T20:13:14.795Z,24.40
2019-02-15T20:15:48.109Z,24.40
2019-02-15T20:18:21.888Z,24.30
2019-02-15T20:20:54.516Z,24.30
2019-02-15T20:23:27.534Z,24.20
2019-02-15T20:26:00.139Z,24.10
2019-02-15T20:28:32.685Z,23.80
2019-02-15T20:31:05.241Z,23.80
2019-02-15T20:33:38.026Z,23.80
2019-02-15T20:36:10.504Z,23.70
2019-02-15T20:38:42.960Z,23.90
2019-02-15T20:41:15.201Z,24.10
2019-02-15T20:43:48.051Z,24.00
2019-02-15T20:46:21.509Z,23.90
2019-02-15T20:49:04.078Z,24.00
2019-02-15T20:51:27.868Z,23.70
2019-02-15T20:54:00.122Z,23.80
2019-02-15T20:56:32.345Z,23.80
2019-02-15T20:59:04.735Z,24.00
2019-02-15T21:01:37.222Z,24.10
2019-02-15T21:04:09.692Z,24.10
2019-02-15T21:06:42.158Z,24.00
2019-02-15T21:09:14.579Z,23.90
2019-02-15T21:11:47.140Z,23.80
2019-02-15T21:14:19.423Z,23.80
2019-02-15T21:16:51.620Z,23.80
2019-02-15T21:19:24.876Z,23.70
2019-02-15T21:21:57.254Z,23.70
2019-02-15T21:24:29.460Z,23.60
2019-02-15T21:27:02.080Z,23.60
2019-02-15T21:29:34.623Z,23.80
2019-02-15T21:32:07.614Z,23.90
2019-02-15T21:34:39.860Z,24.00
2019-02-15T21:37:12.516Z,23.90
2019-02-15T21:39:45.255Z,24.00
2019-02-15T21:42:17.705Z,23.90
2019-02-15T21:44:50.261Z,23.90
2019-02-15T21:47:22.923Z,24.00
2019-02-15T21:49:55.595Z,24.00
2019-02-15T21:52:27.931Z,24.00
2019-02-15T21:55:00.754Z,23.90
2019-02-15T21:57:33.406Z,23.90
2019-02-15T22:00:07.528Z,23.80
2019-02-15T22:02:41.494Z,23.90
2019-02-15T22:05:13.613Z,23.90
2019-02-15T22:07:46.216Z,23.90
2019-02-15T22:10:18.527Z,24.00
2019-02-15T22:12:51.301Z,24.00
2019-02-15T22:15:23.659Z,24.00
2019-02-15T22:17:56.133Z,24.00
2019-02-15T22:20:28.356Z,24.00
2019-02-15T22:23:01.566Z,24.00
2019-02-15T22:25:34.095Z,24.10
2019-02-15T22:28:06.690Z,24.10
2019-02-15T22:30:39.366Z,24.20
2019-02-15T22:33:11.923Z,24.20
2019-02-15T22:35:44.576Z,24.20
2019-02-15T22:38:17.066Z,24.20
2019-02-15T22:40:52.406Z,24.10
2019-02-15T22:43:24.903Z,24.10
2019-02-15T22:45:57.135Z,24.10
2019-02-15T22:48:29.766Z,24.10
2019-02-15T22:51:02.093Z,24.00
2019-02-15T22:53:34.538Z,24.00
2019-02-15T22:56:06.853Z,24.10
2019-02-15T22:58:39.265Z,24.10
2019-02-15T23:01:14.154Z,24.20
2019-02-15T23:03:46.741Z,24.10
2019-02-15T23:06:19.169Z,24.10
2019-02-15T23:08:51.637Z,23.90
2019-02-15T23:11:24.545Z,23.80
2019-02-15T23:13:56.868Z,23.70
2019-02-15T23:16:29.255Z,23.80
2019-02-15T23:19:01.468Z,23.90
2019-02-15T23:21:34.016Z,23.90
2019-02-15T23:24:06.330Z,23.90
2019-02-15T23:26:38.820Z,23.90
2019-02-15T23:29:11.254Z,23.90
2019-02-15T23:31:43.596Z,23.90
2019-02-15T23:34:16.606Z,24.00
2019-02-15T23:36:49.057Z,23.90
2019-02-15T23:39:21.662Z,23.90
2019-02-15T23:41:54.080Z,24.00
2019-02-15T23:44:26.671Z,24.00
2019-02-15T23:46:59.103Z,24.00
2019-02-15T23:49:31.731Z,24.10
2019-02-15T23:52:04.371Z,24.10
2019-02-15T23:54:36.691Z,24.10
2019-02-15T23:57:09.030Z,24.20
2019-02-15T23:59:41.750Z,24.20
